createdAt,value
2022-10-17T00:01:01.998Z,15.50
2022-10-17T00:03:30.350Z,15.50
2022-10-17T00:05:58.614Z,15.50
2022-10-17T00:08:26.893Z,15.50
2022-10-17T00:10:59.892Z,15.50
2022-10-17T00:13:30.007Z,15.50
2022-10-17T00:15:58.410Z,15.50
2022-10-17T00:18:26.764Z,15.40
2022-10-17T00:20:54.996Z,15.40
2022-10-17T00:23:23.344Z,15.40
2022-10-17T00:25:59.754Z,15.40
2022-10-17T00:28:29.448Z,15.30
2022-10-17T00:30:58.914Z,15.40
2022-10-17T00:33:27.556Z,15.30
2022-10-17T00:36:05.842Z,15.30
2022-10-17T00:38:34.365Z,15.30
2022-10-17T00:41:02.656Z,15.30
2022-10-17T00:43:50.989Z,15.30
2022-10-17T00:46:19.677Z,15.30
2022-10-17T00:48:49.800Z,15.30
2022-10-17T00:51:20.059Z,15.30
2022-10-17T00:53:48.418Z,15.30
2022-10-17T00:56:17.337Z,15.30
2022-10-17T00:58:47.410Z,15.30
2022-10-17T01:01:16.325Z,15.30
2022-10-17T01:03:45.025Z,15.30
2022-10-17T01:06:13.587Z,15.30
2022-10-17T01:08:42.188Z,15.30
2022-10-17T01:11:22.627Z,15.30
2022-10-17T01:13:58.841Z,15.30
2022-10-17T01:16:38.739Z,15.30
2022-10-17T01:19:29.129Z,15.30
2022-10-17T01:22:02.037Z,15.20
2022-10-17T01:24:50.107Z,15.20
2022-10-17T01:27:52.142Z,15.20
2022-10-17T01:30:57.752Z,15.20
2022-10-17T01:33:44.719Z,15.20
2022-10-17T01:36:18.717Z,15.20
2022-10-17T01:38:50.889Z,15.20
2022-10-17T01:41:28.791Z,15.10
2022-10-17T01:44:02.471Z,15.20
2022-10-17T01:46:35.004Z,15.10
2022-10-17T01:49:07.740Z,15.10
2022-10-17T01:51:40.033Z,15.20
2022-10-17T01:54:13.265Z,15.20
2022-10-17T01:56:43.949Z,15.20
2022-10-17T01:59:15.913Z,15.10
2022-10-17T02:01:46.916Z,15.10
2022-10-17T02:04:17.054Z,15.10
2022-10-17T02:06:45.336Z,15.10
2022-10-17T02:09:20.978Z,15.10
2022-10-17T02:12:05.225Z,15.10
2022-10-17T02:14:46.528Z,15.10
2022-10-17T02:17:20.873Z,15.10
2022-10-17T02:20:00.130Z,15.10
2022-10-17T02:22:39.025Z,15.10
2022-10-17T02:25:15.744Z,15.10
2022-10-17T02:27:49.987Z,15.10
2022-10-17T02:30:29.431Z,15.00
2022-10-17T02:33:01.210Z,15.00
2022-10-17T02:35:35.862Z,15.00
2022-10-17T02:38:06.683Z,15.00
2022-10-17T02:40:36.917Z,15.00
2022-10-17T02:43:05.863Z,15.00
2022-10-17T02:45:36.322Z,15.00
2022-10-17T02:48:09.861Z,15.00
2022-10-17T02:50:50.006Z,15.00
2022-10-17T02:53:26.090Z,15.00
2022-10-17T02:55:58.269Z,15.00
2022-10-17T02:58:31.466Z,15.00
2022-10-17T03:01:00.334Z,14.90
2022-10-17T03:03:31.340Z,15.00
2022-10-17T03:06:04.318Z,15.00
2022-10-17T03:08:32.623Z,15.00
2022-10-17T03:11:01.742Z,15.00
2022-10-17T03:13:33.021Z,15.00
2022-10-17T03:16:03.442Z,15.00
2022-10-17T03:18:31.770Z,14.90
2022-10-17T03:21:03.530Z,14.90
2022-10-17T03:23:31.748Z,14.90
2022-10-17T03:26:05.102Z,14.90
2022-10-17T03:28:35.324Z,14.90
2022-10-17T03:31:09.558Z,14.90
2022-10-17T03:33:39.327Z,14.90
2022-10-17T03:36:10.442Z,14.70
2022-10-17T03:38:39.305Z,14.90
2022-10-17T03:41:09.061Z,14.90
2022-10-17T03:43:39.490Z,14.80
2022-10-17T03:46:09.072Z,14.90
2022-10-17T03:48:38.630Z,14.80
2022-10-17T03:51:10.843Z,14.80
2022-10-17T03:53:46.840Z,14.80
2022-10-17T03:56:17.168Z,14.80
2022-10-17T03:58:48.486Z,14.90
2022-10-17T04:01:18.943Z,14.80
2022-10-17T04:03:50.634Z,14.80
2022-10-17T04:06:22.191Z,14.80
2022-10-17T04:08:51.260Z,14.80
2022-10-17T04:11:27.082Z,14.80
2022-10-17T04:14:00.408Z,14.80
2022-10-17T04:16:30.517Z,14.80
2022-10-17T04:19:03.004Z,14.80
2022-10-17T04:21:38.166Z,14.80
2022-10-17T04:24:11.194Z,14.80
2022-10-17T04:26:51.406Z,14.80
2022-10-17T04:29:20.962Z,14.80
2022-10-17T04:31:52.361Z,14.80
2022-10-17T04:34:25.829Z,14.80
2022-10-17T04:36:55.984Z,14.80
2022-10-17T04:39:24.376Z,14.80
2022-10-17T04:41:52.888Z,14.80
2022-10-17T04:44:21.878Z,14.80
2022-10-17T04:46:53.064Z,14.70
2022-10-17T04:49:21.570Z,14.70
2022-10-17T04:51:55.297Z,14.80
2022-10-17T04:54:39.008Z,14.80
2022-10-17T04:57:10.680Z,14.70
2022-10-17T04:59:40.655Z,14.70
2022-10-17T05:02:21.871Z,14.70
2022-10-17T05:04:50.107Z,14.70
2022-10-17T05:07:20.223Z,14.70
2022-10-17T05:10:18.122Z,14.70
2022-10-17T05:12:49.851Z,14.70
2022-10-17T05:15:20.242Z,14.70
2022-10-17T05:17:48.644Z,14.70
2022-10-17T05:20:16.945Z,14.70
2022-10-17T05:22:47.045Z,14.70
2022-10-17T05:25:15.567Z,14.70
2022-10-17T05:27:43.993Z,14.70
2022-10-17T05:30:12.863Z,14.70
2022-10-17T05:32:42.093Z,14.70
2022-10-17T05:35:11.000Z,14.70
2022-10-17T05:37:40.345Z,14.70
2022-10-17T05:40:11.438Z,14.70
2022-10-17T05:45:13.344Z,14.60
2022-10-17T05:47:41.648Z,14.60
2022-10-17T05:50:11.291Z,14.60
2022-10-17T05:52:57.783Z,14.60
2022-10-17T05:55:27.424Z,14.70
2022-10-17T05:57:55.677Z,14.60
2022-10-17T06:00:26.053Z,14.60
2022-10-17T06:02:59.018Z,14.60
2022-10-17T06:05:27.352Z,14.60
2022-10-17T06:08:01.077Z,14.60
2022-10-17T06:10:34.651Z,14.60
2022-10-17T06:13:03.098Z,14.60
2022-10-17T06:15:31.417Z,14.60
2022-10-17T06:18:04.529Z,14.60
2022-10-17T06:20:32.755Z,14.60
2022-10-17T06:23:01.239Z,14.60
2022-10-17T06:25:46.665Z,14.60
2022-10-17T06:28:15.063Z,14.60
2022-10-17T06:30:43.372Z,14.60
2022-10-17T06:33:13.296Z,14.60
2022-10-17T06:35:41.598Z,14.60
2022-10-17T06:38:10.091Z,14.60
2022-10-17T06:40:39.122Z,14.60
2022-10-17T06:43:08.832Z,14.70
2022-10-17T06:48:39.680Z,14.70
2022-10-17T06:51:27.857Z,14.70
2022-10-17T06:53:59.452Z,14.70
2022-10-17T06:56:50.766Z,14.70
2022-10-17T06:59:36.245Z,14.70
2022-10-17T07:02:12.322Z,14.70
2022-10-17T07:04:40.804Z,14.70
2022-10-17T07:07:09.508Z,14.70
2022-10-17T07:09:38.252Z,14.70
2022-10-17T07:12:08.470Z,14.80
2022-10-17T07:14:38.446Z,14.80
2022-10-17T07:17:06.642Z,14.80
2022-10-17T07:19:34.953Z,14.80
2022-10-17T07:22:03.931Z,14.80
2022-10-17T07:24:33.634Z,14.90
2022-10-17T07:27:11.286Z,14.90
2022-10-17T07:29:41.064Z,14.90
2022-10-17T07:32:18.828Z,15.00
2022-10-17T07:34:47.093Z,15.00
2022-10-17T07:37:15.381Z,15.00
2022-10-17T07:39:49.793Z,15.00
2022-10-17T07:42:18.134Z,15.10
2022-10-17T07:44:47.893Z,15.00
2022-10-17T07:47:16.780Z,15.10
2022-10-17T07:49:46.126Z,15.10
2022-10-17T07:52:15.354Z,15.10
2022-10-17T07:54:43.658Z,15.10
2022-10-17T07:57:11.996Z,15.10
2022-10-17T07:59:40.322Z,15.20
2022-10-17T08:02:13.363Z,15.20
2022-10-17T08:04:41.616Z,15.20
2022-10-17T08:07:21.851Z,15.20
2022-10-17T08:09:51.879Z,15.20
2022-10-17T08:12:20.137Z,15.20
2022-10-17T08:14:48.400Z,15.20
2022-10-17T08:17:18.152Z,15.20
2022-10-17T08:19:46.409Z,15.20
2022-10-17T08:22:14.674Z,15.20
2022-10-17T08:24:44.516Z,15.20
2022-10-17T08:27:13.680Z,15.20
2022-10-17T08:29:42.360Z,15.30
2022-10-17T08:32:10.587Z,15.20
2022-10-17T08:34:40.169Z,15.30
2022-10-17T08:37:08.598Z,15.30
2022-10-17T08:39:36.827Z,15.30
2022-10-17T08:42:20.750Z,15.30
2022-10-17T08:44:58.303Z,15.30
2022-10-17T08:47:30.592Z,15.30
2022-10-17T08:50:03.105Z,15.30
2022-10-17T08:52:46.048Z,15.30
2022-10-17T08:55:17.580Z,15.30
2022-10-17T08:57:46.087Z,15.30
2022-10-17T09:00:18.574Z,15.30
2022-10-17T09:02:58.659Z,15.30
2022-10-17T09:05:35.980Z,15.30
2022-10-17T09:08:14.303Z,15.30
2022-10-17T09:10:53.637Z,15.30
2022-10-17T09:13:33.098Z,15.30
2022-10-17T09:16:13.724Z,15.40
2022-10-17T09:18:44.404Z,15.40
2022-10-17T09:21:22.016Z,15.40
2022-10-17T09:24:03.833Z,15.40
2022-10-17T09:26:39.855Z,15.40
2022-10-17T09:29:17.994Z,15.40
2022-10-17T09:31:52.483Z,15.40
2022-10-17T09:34:24.008Z,15.40
2022-10-17T09:36:55.243Z,15.40
2022-10-17T09:39:26.282Z,15.40
2022-10-17T09:41:56.839Z,15.40
2022-10-17T09:44:27.034Z,15.50
2022-10-17T09:47:19.431Z,15.40
2022-10-17T09:49:49.248Z,15.50
2022-10-17T09:52:21.584Z,15.50
2022-10-17T09:54:51.915Z,15.50
2022-10-17T09:57:21.773Z,15.50
2022-10-17T09:59:58.606Z,15.50
2022-10-17T10:02:29.041Z,15.50
2022-10-17T10:05:04.962Z,15.50
2022-10-17T10:07:37.818Z,15.60
2022-10-17T10:10:07.442Z,15.60
2022-10-17T10:12:37.579Z,15.60
2022-10-17T10:15:34.500Z,15.60
2022-10-17T10:18:02.870Z,15.50
2022-10-17T10:20:34.568Z,15.50
2022-10-17T10:23:07.665Z,15.50
2022-10-17T10:25:37.239Z,15.50
2022-10-17T10:28:12.196Z,15.60
2022-10-17T10:30:40.545Z,15.50
2022-10-17T10:33:13.284Z,15.50
2022-10-17T10:35:41.549Z,15.50
2022-10-17T10:38:15.288Z,15.50
2022-10-17T10:40:49.318Z,15.60
2022-10-17T10:43:31.638Z,15.60
2022-10-17T10:46:00.420Z,15.50
2022-10-17T10:48:33.115Z,15.60
2022-10-17T10:51:05.745Z,15.50
2022-10-17T10:53:45.708Z,15.50
2022-10-17T10:56:18.187Z,15.50
2022-10-17T10:58:56.290Z,15.50
2022-10-17T11:01:31.324Z,15.50
2022-10-17T11:04:13.222Z,15.50
2022-10-17T11:06:44.370Z,15.50
2022-10-17T11:09:32.864Z,15.50
2022-10-17T11:12:07.690Z,15.50
2022-10-17T11:14:43.993Z,15.50
2022-10-17T11:17:22.997Z,15.50
2022-10-17T11:19:57.394Z,15.50
2022-10-17T11:22:31.102Z,15.60
2022-10-17T11:25:05.530Z,15.60
2022-10-17T11:27:35.868Z,15.60
2022-10-17T11:30:06.508Z,15.60
2022-10-17T11:32:41.206Z,15.50
2022-10-17T11:35:19.448Z,15.50
2022-10-17T11:37:52.708Z,15.50
2022-10-17T11:40:27.662Z,15.50
2022-10-17T11:43:01.408Z,15.50
2022-10-17T11:45:35.037Z,15.50
2022-10-17T11:48:07.672Z,15.60
2022-10-17T11:53:32.539Z,15.50
2022-10-17T11:56:03.077Z,15.50
2022-10-17T11:58:38.505Z,15.60
2022-10-17T12:01:16.865Z,15.50
2022-10-17T12:03:55.604Z,15.50
2022-10-17T12:06:43.137Z,15.50
2022-10-17T12:09:20.316Z,15.50
2022-10-17T12:11:54.174Z,15.50
2022-10-17T12:14:40.675Z,15.60
2022-10-17T12:17:32.964Z,15.60
2022-10-17T12:20:41.385Z,15.60
2022-10-17T12:23:28.458Z,15.60
2022-10-17T12:26:01.462Z,15.50
2022-10-17T12:28:34.905Z,15.50
2022-10-17T12:31:06.659Z,15.50
2022-10-17T12:33:38.318Z,15.50
2022-10-17T12:36:27.513Z,15.50
2022-10-17T12:39:50.829Z,15.50
2022-10-17T12:42:52.177Z,15.50
2022-10-17T12:45:49.306Z,15.50
2022-10-17T12:48:51.108Z,15.60
2022-10-17T12:51:35.180Z,15.50
2022-10-17T12:54:12.018Z,15.60
2022-10-17T12:56:42.419Z,15.50
2022-10-17T12:59:17.077Z,15.50
2022-10-17T13:01:50.513Z,15.50
2022-10-17T13:04:19.623Z,15.50
2022-10-17T13:06:50.809Z,15.50
2022-10-17T13:09:26.439Z,15.50
2022-10-17T13:11:57.416Z,15.50
2022-10-17T13:14:27.560Z,15.60
2022-10-17T13:16:59.302Z,15.60
2022-10-17T13:19:30.171Z,15.50
2022-10-17T13:22:05.988Z,15.50
2022-10-17T13:24:37.228Z,15.50
2022-10-17T13:27:07.245Z,15.50
2022-10-17T13:29:35.682Z,15.60
2022-10-17T13:32:07.055Z,15.60
2022-10-17T13:34:35.575Z,15.60
2022-10-17T13:37:06.377Z,15.60
2022-10-17T13:39:55.197Z,15.60
2022-10-17T13:42:28.637Z,15.60
2022-10-17T13:44:59.151Z,15.60
2022-10-17T13:47:30.978Z,15.60
2022-10-17T13:49:59.983Z,15.60
2022-10-17T13:52:31.088Z,15.60
2022-10-17T13:55:14.278Z,15.60
2022-10-17T13:57:45.084Z,15.60
2022-10-17T14:00:20.564Z,15.60
2022-10-17T14:02:50.252Z,15.60
2022-10-17T14:05:20.826Z,15.60
2022-10-17T14:10:43.832Z,15.60
2022-10-17T14:13:22.199Z,15.60
2022-10-17T14:15:52.530Z,15.60
2022-10-17T14:18:26.397Z,15.60
2022-10-17T14:21:34.078Z,15.60
2022-10-17T14:23:44.939Z,15.60
2022-10-17T14:26:16.310Z,15.60
2022-10-17T14:28:48.486Z,15.60
2022-10-17T14:31:25.622Z,15.60
2022-10-17T14:33:55.848Z,15.60
2022-10-17T14:36:33.901Z,15.60
2022-10-17T14:39:03.243Z,15.60
2022-10-17T14:41:44.613Z,15.60
2022-10-17T14:44:23.106Z,15.60
2022-10-17T14:46:55.646Z,15.60
2022-10-17T14:49:34.624Z,15.60
2022-10-17T14:52:27.384Z,15.60
2022-10-17T14:54:58.538Z,15.60
2022-10-17T14:57:36.131Z,15.60
2022-10-17T15:00:06.821Z,15.60
2022-10-17T15:02:35.097Z,15.60
2022-10-17T15:05:07.318Z,15.60
2022-10-17T15:07:37.691Z,15.60
2022-10-17T15:10:06.927Z,15.60
2022-10-17T15:12:35.337Z,15.60
2022-10-17T15:15:03.572Z,15.60
2022-10-17T15:17:34.756Z,15.60
2022-10-17T15:20:04.777Z,15.60
2022-10-17T15:22:36.540Z,15.60
2022-10-17T15:25:05.350Z,15.60
2022-10-17T15:27:33.687Z,15.60
2022-10-17T15:30:01.970Z,15.60
2022-10-17T15:32:30.219Z,15.60
2022-10-17T15:34:58.624Z,15.60
2022-10-17T15:37:34.839Z,15.60
2022-10-17T15:40:03.296Z,15.60
2022-10-17T15:42:32.255Z,15.60
2022-10-17T15:45:00.552Z,15.60
2022-10-17T15:47:33.427Z,15.60
2022-10-17T15:50:02.426Z,15.60
2022-10-17T15:52:32.015Z,15.60
2022-10-17T15:55:04.047Z,15.60
2022-10-17T15:57:38.019Z,15.60
2022-10-17T16:00:15.492Z,15.60
2022-10-17T16:02:45.150Z,15.60
2022-10-17T16:05:16.264Z,15.60
2022-10-17T16:07:46.914Z,15.60
2022-10-17T16:10:15.920Z,15.60
2022-10-17T16:12:44.476Z,15.60
2022-10-17T16:15:16.200Z,15.60
2022-10-17T16:17:44.518Z,15.60
2022-10-17T16:20:13.509Z,15.60
2022-10-17T16:22:43.962Z,15.60
2022-10-17T16:25:19.566Z,15.60
2022-10-17T16:27:49.082Z,15.60
2022-10-17T16:30:17.572Z,15.60
2022-10-17T16:32:46.211Z,15.60
2022-10-17T16:35:18.952Z,15.70
2022-10-17T16:37:47.572Z,15.60
2022-10-17T16:40:17.597Z,15.60
2022-10-17T16:42:45.935Z,15.70
2022-10-17T16:45:18.004Z,15.80
2022-10-17T16:47:46.527Z,15.90
2022-10-17T16:50:15.051Z,16.00
2022-10-17T16:52:43.457Z,16.00
2022-10-17T16:55:11.776Z,16.00
2022-10-17T17:00:14.335Z,16.10
2022-10-17T17:02:42.647Z,16.10
2022-10-17T17:05:11.379Z,16.10
2022-10-17T17:07:39.790Z,16.10
2022-10-17T17:10:08.855Z,16.10
2022-10-17T17:12:37.352Z,16.20
2022-10-17T17:15:07.765Z,16.40
2022-10-17T17:17:55.242Z,17.00
2022-10-17T17:20:24.238Z,16.30
2022-10-17T17:22:52.606Z,17.20
2022-10-17T17:25:20.847Z,17.10
2022-10-17T17:27:49.186Z,17.00
2022-10-17T17:30:19.161Z,17.00
2022-10-17T17:32:47.515Z,16.70
2022-10-17T17:35:15.934Z,16.60
2022-10-17T17:37:44.135Z,16.60
2022-10-17T17:40:13.149Z,16.50
2022-10-17T17:42:41.409Z,16.50
2022-10-17T17:45:10.687Z,16.40
2022-10-17T17:47:40.428Z,17.80
2022-10-17T17:50:09.351Z,16.40
2022-10-17T17:52:37.751Z,16.40
2022-10-17T17:55:06.943Z,16.30
2022-10-17T17:57:35.206Z,16.30
2022-10-17T18:02:54.054Z,16.20
2022-10-17T18:05:22.490Z,16.20
2022-10-17T18:07:50.821Z,16.10
2022-10-17T18:10:19.225Z,16.10
2022-10-17T18:12:48.410Z,16.10
2022-10-17T18:15:17.250Z,16.10
2022-10-17T18:17:45.531Z,16.10
2022-10-17T18:20:15.534Z,16.00
2022-10-17T18:22:44.283Z,16.00
2022-10-17T18:25:12.486Z,16.00
2022-10-17T18:27:40.760Z,16.00
2022-10-17T18:30:10.350Z,16.00
2022-10-17T18:32:38.631Z,16.00
2022-10-17T18:35:07.458Z,16.00
2022-10-17T18:37:37.335Z,16.00
2022-10-17T18:40:06.494Z,15.90
2022-10-17T18:42:34.763Z,15.90
2022-10-17T18:45:05.800Z,15.90
2022-10-17T18:47:33.999Z,15.90
2022-10-17T18:50:02.272Z,16.20
2022-10-17T18:52:30.559Z,15.90
2022-10-17T18:55:00.125Z,15.90
2022-10-17T18:57:28.602Z,15.90
2022-10-17T18:59:57.126Z,15.80
2022-10-17T19:02:25.423Z,15.80
2022-10-17T19:04:53.642Z,15.80
2022-10-17T19:07:21.987Z,15.80
2022-10-17T19:09:50.585Z,15.80
2022-10-17T19:12:21.222Z,15.80
2022-10-17T19:14:50.935Z,15.80
2022-10-17T19:17:19.414Z,15.80
2022-10-17T19:19:50.131Z,15.80
2022-10-17T19:22:18.392Z,15.80
2022-10-17T19:24:46.653Z,15.80
2022-10-17T19:27:15.051Z,15.70
2022-10-17T19:29:44.671Z,15.70
2022-10-17T19:32:16.682Z,15.70
2022-10-17T19:34:47.524Z,15.70
2022-10-17T19:37:15.784Z,15.70
2022-10-17T19:39:44.008Z,15.70
2022-10-17T19:42:12.247Z,15.70
2022-10-17T19:44:40.457Z,15.70
2022-10-17T19:47:10.059Z,15.70
2022-10-17T19:49:38.530Z,15.70
2022-10-17T19:52:06.995Z,15.70
2022-10-17T19:54:35.212Z,15.60
2022-10-17T19:57:07.956Z,15.60
2022-10-17T19:59:38.727Z,15.20
2022-10-17T20:02:07.189Z,15.70
2022-10-17T20:04:45.349Z,15.60
2022-10-17T20:07:25.246Z,15.60
2022-10-17T20:09:53.458Z,15.70
2022-10-17T20:12:21.668Z,15.60
2022-10-17T20:14:49.906Z,15.60
2022-10-17T20:17:18.132Z,15.60
2022-10-17T20:19:47.758Z,15.60
2022-10-17T20:22:16.229Z,15.60
2022-10-17T20:24:44.635Z,15.60
2022-10-17T20:27:12.992Z,15.50
2022-10-17T20:29:41.223Z,15.60
2022-10-17T20:32:09.456Z,15.60
2022-10-17T20:34:37.963Z,15.60
2022-10-17T20:37:07.798Z,15.50
2022-10-17T20:39:36.008Z,15.50
2022-10-17T20:42:04.389Z,15.50
2022-10-17T20:44:32.879Z,15.60
2022-10-17T20:47:02.708Z,15.50
2022-10-17T20:49:31.767Z,15.50
2022-10-17T20:52:00.651Z,15.50
2022-10-17T20:54:30.336Z,15.50
2022-10-17T20:57:01.098Z,15.50
2022-10-17T20:59:34.315Z,15.50
2022-10-17T21:02:02.937Z,15.50
2022-10-17T21:04:45.959Z,15.50
2022-10-17T21:07:15.051Z,15.50
2022-10-17T21:09:46.314Z,15.50
2022-10-17T21:12:21.729Z,15.50
2022-10-17T21:14:59.581Z,15.50
2022-10-17T21:17:28.097Z,15.50
2022-10-17T21:19:56.970Z,15.50
2022-10-17T21:22:25.299Z,15.50
2022-10-17T21:24:55.050Z,15.50
2022-10-17T21:27:23.326Z,15.50
2022-10-17T21:29:52.051Z,15.50
2022-10-17T21:32:33.354Z,15.50
2022-10-17T21:35:09.085Z,15.50
2022-10-17T21:37:37.292Z,15.00
2022-10-17T21:40:08.274Z,15.40
2022-10-17T21:42:37.144Z,15.40
2022-10-17T21:45:15.383Z,15.40
2022-10-17T21:47:54.935Z,15.40
2022-10-17T21:50:29.516Z,15.40
2022-10-17T21:52:59.390Z,15.40
2022-10-17T21:55:29.071Z,15.40
2022-10-17T21:57:57.270Z,15.40
2022-10-17T22:00:25.568Z,15.40
2022-10-17T22:02:53.870Z,15.40
2022-10-17T22:05:22.185Z,15.40
2022-10-17T22:07:50.362Z,15.40
2022-10-17T22:10:18.799Z,15.40
2022-10-17T22:12:48.374Z,15.40
2022-10-17T22:15:16.815Z,15.40
2022-10-17T22:17:45.268Z,15.40
2022-10-17T22:20:13.560Z,15.40
2022-10-17T22:22:41.735Z,15.40
2022-10-17T22:25:10.809Z,15.40
2022-10-17T22:27:39.071Z,15.40
2022-10-17T22:30:10.254Z,15.50
2022-10-17T22:32:38.508Z,15.70
2022-10-17T22:35:07.785Z,16.00
2022-10-17T22:37:36.207Z,16.10
2022-10-17T22:40:04.706Z,16.10
2022-10-17T22:42:34.517Z,16.00
2022-10-17T22:45:03.474Z,16.00
2022-10-17T22:47:33.440Z,15.90
2022-10-17T22:50:01.841Z,15.90
2022-10-17T22:52:30.363Z,15.90
2022-10-17T22:54:59.260Z,15.90
2022-10-17T22:57:27.454Z,15.90
2022-10-17T22:59:55.675Z,15.90
2022-10-17T23:02:24.197Z,15.90
2022-10-17T23:04:53.791Z,15.90
2022-10-17T23:07:21.994Z,15.90
2022-10-17T23:09:50.429Z,16.00
2022-10-17T23:12:18.896Z,16.00
2022-10-17T23:14:47.299Z,16.20
2022-10-17T23:17:15.910Z,16.50
2022-10-17T23:19:44.249Z,16.50
2022-10-17T23:22:13.941Z,16.30
2022-10-17T23:24:42.156Z,16.20
2022-10-17T23:27:10.527Z,16.10
2022-10-17T23:29:38.915Z,15.80
2022-10-17T23:32:07.508Z,15.80
2022-10-17T23:34:36.296Z,15.80
2022-10-17T23:37:04.665Z,15.70
2022-10-17T23:39:34.200Z,15.70
2022-10-17T23:42:02.393Z,15.60
2022-10-17T23:44:30.800Z,15.60
2022-10-17T23:46:59.021Z,15.60
2022-10-17T23:49:28.185Z,15.60
2022-10-17T23:51:56.570Z,15.60
2022-10-17T23:54:24.822Z,15.60
2022-10-17T23:56:54.529Z,15.50
2022-10-17T23:59:22.849Z,15.50
